sensor_id;sensor_type;location;lat;lon;timestamp;pressure;altitude;pressure_sealevel;temperature;humidity
9141;BME280;46330;50.822;7.126;2023-02-01T00:00:09;101408.81;;;5.47;100.00
9141;BME280;46330;50.822;7.126;2023-02-01T00:02:39;101408.75;;;5.45;100.00
9141;BME280;46330;50.822;7.126;2023-02-01T00:05:08;101401.03;;;5.47;100.00
9141;BME280;46330;50.822;7.126;2023-02-01T00:07:36;101408.81;;;5.48;100.00
9141;BME280;46330;50.822;7.126;2023-02-01T00:10:06;101402.78;;;5.49;100.00
9141;BME280;46330;50.822;7.126;2023-02-01T00:12:34;101400.22;;;5.51;100.00
9141;BME280;46330;50.822;7.126;2023-02-01T00:15:02;101401.91;;;5.49;100.00
9141;BME280;46330;50.822;7.126;2023-02-01T00:17:30;101396.63;;;5.41;100.00
9141;BME280;46330;50.822;7.126;2023-02-01T00:19:59;101398.34;;;5.42;100.00
9141;BME280;46330;50.822;7.126;2023-02-01T00:22:27;101406.97;;;5.39;100.00
9141;BME280;46330;50.822;7.126;2023-02-01T00:24:55;101407.72;;;5.32;100.00
9141;BME280;46330;50.822;7.126;2023-02-01T00:27:22;101399.84;;;5.25;100.00
9141;BME280;46330;50.822;7.126;2023-02-01T00:29:50;101411.94;;;5.23;100.00
9141;BME280;46330;50.822;7.126;2023-02-01T00:32:18;101409.31;;;5.21;100.00
9141;BME280;46330;50.822;7.126;2023-02-01T00:34:47;101408.47;;;5.24;100.00
9141;BME280;46330;50.822;7.126;2023-02-01T00:37:16;101423.19;;;5.26;100.00
9141;BME280;46330;50.822;7.126;2023-02-01T00:39:44;101420.56;;;5.23;100.00
9141;BME280;46330;50.822;7.126;2023-02-01T00:42:12;101411.91;;;5.21;100.00
9141;BME280;46330;50.822;7.126;2023-02-01T00:44:40;101410.22;;;5.25;100.00
9141;BME280;46330;50.822;7.126;2023-02-01T00:51:22;101410.13;;;5.19;100.00
9141;BME280;46330;50.822;7.126;2023-02-01T00:53:52;101407.59;;;5.22;100.00
9141;BME280;46330;50.822;7.126;2023-02-01T00:56:20;101409.31;;;5.21;100.00
9141;BME280;46330;50.822;7.126;2023-02-01T00:58:49;101410.22;;;5.25;100.00
9141;BME280;46330;50.822;7.126;2023-02-01T01:01:19;101416.28;;;5.25;100.00
9141;BME280;46330;50.822;7.126;2023-02-01T01:03:49;101411.97;;;5.27;100.00
9141;BME280;46330;50.822;7.126;2023-02-01T01:06:20;101400.78;;;5.28;100.00
9141;BME280;46330;50.822;7.126;2023-02-01T01:13:03;101390.50;;;5.36;100.00
9141;BME280;46330;50.822;7.126;2023-02-01T01:15:31;101377.50;;;5.36;100.00
9141;BME280;46330;50.822;7.126;2023-02-01T01:17:58;101365.47;;;5.39;100.00
9141;BME280;46330;50.822;7.126;2023-02-01T01:20:26;101358.59;;;5.41;100.00
9141;BME280;46330;50.822;7.126;2023-02-01T01:22:54;101359.47;;;5.43;100.00
9141;BME280;46330;50.822;7.126;2023-02-01T01:25:22;101365.53;;;5.46;99.35
9141;BME280;46330;50.822;7.126;2023-02-01T01:27:50;101367.25;;;5.45;99.43
9141;BME280;46330;50.822;7.126;2023-02-01T01:30:20;101371.53;;;5.40;100.00
9141;BME280;46330;50.822;7.126;2023-02-01T01:32:49;101369.78;;;5.37;100.00
9141;BME280;46330;50.822;7.126;2023-02-01T01:35:17;101382.75;;;5.37;100.00
9141;BME280;46330;50.822;7.126;2023-02-01T01:37:45;101379.19;;;5.32;99.54
9141;BME280;46330;50.822;7.126;2023-02-01T01:40:13;101384.41;;;5.34;99.45
9141;BME280;46330;50.822;7.126;2023-02-01T01:42:43;101388.72;;;5.32;98.27
9141;BME280;46330;50.822;7.126;2023-02-01T01:45:22;101399.97;;;5.34;97.28
9141;BME280;46330;50.822;7.126;2023-02-01T01:47:53;101389.56;;;5.31;97.65
9141;BME280;46330;50.822;7.126;2023-02-01T01:50:25;101393.91;;;5.32;97.29
9141;BME280;46330;50.822;7.126;2023-02-01T01:52:57;101400.81;;;5.31;96.08
9141;BME280;46330;50.822;7.126;2023-02-01T01:55:27;101401.69;;;5.33;96.68
9141;BME280;46330;50.822;7.126;2023-02-01T01:58:01;101399.94;;;5.31;96.76
9141;BME280;46330;50.822;7.126;2023-02-01T02:00:32;101393.88;;;5.29;96.92
9141;BME280;46330;50.822;7.126;2023-02-01T02:03:05;101386.03;;;5.27;96.72
9141;BME280;46330;50.822;7.126;2023-02-01T02:05:34;101378.31;;;5.29;96.34
9141;BME280;46330;50.822;7.126;2023-02-01T02:08:03;101374.84;;;5.28;96.01
9141;BME280;46330;50.822;7.126;2023-02-01T02:10:33;101373.09;;;5.27;96.47
9141;BME280;46330;50.822;7.126;2023-02-01T02:13:15;101360.06;;;5.24;96.37
9141;BME280;46330;50.822;7.126;2023-02-01T02:15:56;101350.50;;;5.20;96.96
9141;BME280;46330;50.822;7.126;2023-02-01T02:18:32;101356.59;;;5.22;97.05
9141;BME280;46330;50.822;7.126;2023-02-01T02:21:17;101348.00;;;5.26;96.45
9141;BME280;46330;50.822;7.126;2023-02-01T02:24:09;101361.00;;;5.28;96.27
9141;BME280;46330;50.822;7.126;2023-02-01T02:27:03;101343.72;;;5.30;96.50
9141;BME280;46330;50.822;7.126;2023-02-01T02:33:28;101352.38;;;5.29;96.89
9141;BME280;46330;50.822;7.126;2023-02-01T02:36:08;101349.78;;;5.29;96.71
9141;BME280;46330;50.822;7.126;2023-02-01T02:38:42;101350.63;;;5.28;97.17
9141;BME280;46330;50.822;7.126;2023-02-01T02:41:16;101341.03;;;5.22;96.80
9141;BME280;46330;50.822;7.126;2023-02-01T02:44:12;101345.34;;;5.22;97.74
9141;BME280;46330;50.822;7.126;2023-02-01T02:47:04;101346.28;;;5.25;97.56
9141;BME280;46330;50.822;7.126;2023-02-01T02:50:12;101341.00;;;5.19;97.99
9141;BME280;46330;50.822;7.126;2023-02-01T02:53:04;101341.00;;;5.19;98.18
9141;BME280;46330;50.822;7.126;2023-02-01T02:55:52;101344.47;;;5.20;97.78
9141;BME280;46330;50.822;7.126;2023-02-01T02:58:37;101349.69;;;5.23;97.78
9141;BME280;46330;50.822;7.126;2023-02-01T03:01:23;101342.75;;;5.22;97.80
9141;BME280;46330;50.822;7.126;2023-02-01T03:04:08;101341.09;;;5.27;97.24
9141;BME280;46330;50.822;7.126;2023-02-01T03:06:45;101334.25;;;5.32;96.76
9141;BME280;46330;50.822;7.126;2023-02-01T03:09:19;101323.03;;;5.36;96.93
9141;BME280;46330;50.822;7.126;2023-02-01T03:11:51;101317.91;;;5.37;96.49
9141;BME280;46330;50.822;7.126;2023-02-01T03:14:57;101313.59;;;5.39;95.89
9141;BME280;46330;50.822;7.126;2023-02-01T03:17:32;101321.44;;;5.44;94.75
9141;BME280;46330;50.822;7.126;2023-02-01T03:20:04;101321.44;;;5.44;94.92
9141;BME280;46330;50.822;7.126;2023-02-01T03:22:35;101317.09;;;5.41;95.33
9141;BME280;46330;50.822;7.126;2023-02-01T03:25:08;101309.28;;;5.38;95.58
9141;BME280;46330;50.822;7.126;2023-02-01T03:27:42;101319.66;;;5.38;95.58
9141;BME280;46330;50.822;7.126;2023-02-01T03:30:17;101327.41;;;5.37;95.47
9141;BME280;46330;50.822;7.126;2023-02-01T03:32:50;101327.41;;;5.37;96.19
9141;BME280;46330;50.822;7.126;2023-02-01T03:35:32;101328.28;;;5.39;96.27
9141;BME280;46330;50.822;7.126;2023-02-01T03:38:09;101327.41;;;5.37;96.28
9141;BME280;46330;50.822;7.126;2023-02-01T03:40:41;101325.63;;;5.36;96.57
9141;BME280;46330;50.822;7.126;2023-02-01T03:43:17;101330.81;;;5.36;96.41
9141;BME280;46330;50.822;7.126;2023-02-01T03:45:50;101323.91;;;5.36;96.02
9141;BME280;46330;50.822;7.126;2023-02-01T03:48:22;101315.31;;;5.39;95.75
9141;BME280;46330;50.822;7.126;2023-02-01T03:50:53;101320.53;;;5.40;96.11
9141;BME280;46330;50.822;7.126;2023-02-01T03:53:25;101330.94;;;5.45;95.54
9141;BME280;46330;50.822;7.126;2023-02-01T03:55:54;101329.22;;;5.46;95.41
9141;BME280;46330;50.822;7.126;2023-02-01T03:58:24;101314.53;;;5.45;95.37
9141;BME280;46330;50.822;7.126;2023-02-01T04:00:54;101312.81;;;5.47;95.08
9141;BME280;46330;50.822;7.126;2023-02-01T04:03:23;101316.19;;;5.39;94.40
9141;BME280;46330;50.822;7.126;2023-02-01T04:05:52;101326.47;;;5.33;94.82
9141;BME280;46330;50.822;7.126;2023-02-01T04:08:25;101311.75;;;5.32;94.98
9141;BME280;46330;50.822;7.126;2023-02-01T04:10:53;101307.44;;;5.31;95.14
9141;BME280;46330;50.822;7.126;2023-02-01T04:13:21;101314.28;;;5.26;94.82
9141;BME280;46330;50.822;7.126;2023-02-01T04:15:49;101323.78;;;5.24;94.65
9141;BME280;46330;50.822;7.126;2023-02-01T04:18:17;101311.63;;;5.23;94.39
9141;BME280;46330;50.822;7.126;2023-02-01T04:20:45;101315.16;;;5.27;93.87
9141;BME280;46330;50.822;7.126;2023-02-01T04:23:13;101319.53;;;5.32;93.77
9141;BME280;46330;50.822;7.126;2023-02-01T04:25:43;101317.03;;;5.37;93.62
9141;BME280;46330;50.822;7.126;2023-02-01T04:28:11;101319.56;;;5.34;94.44
9141;BME280;46330;50.822;7.126;2023-02-01T04:30:39;101325.72;;;5.40;93.82
9141;BME280;46330;50.822;7.126;2023-02-01T04:33:07;101315.31;;;5.39;94.09
9141;BME280;46330;50.822;7.126;2023-02-01T04:35:36;101308.41;;;5.39;94.18
9141;BME280;46330;50.822;7.126;2023-02-01T04:38:04;101307.56;;;5.40;93.93
9141;BME280;46330;50.822;7.126;2023-02-01T04:40:31;101313.59;;;5.39;93.68
9141;BME280;46330;50.822;7.126;2023-02-01T04:43:01;101308.41;;;5.39;94.09
9141;BME280;46330;50.822;7.126;2023-02-01T04:45:30;101305.81;;;5.39;94.07
9141;BME280;46330;50.822;7.126;2023-02-01T04:47:58;101315.34;;;5.42;93.51
9141;BME280;46330;50.822;7.126;2023-02-01T04:50:26;101307.53;;;5.37;93.96
9141;BME280;46330;50.822;7.126;2023-02-01T04:52:53;101310.13;;;5.37;93.53
9141;BME280;46330;50.822;7.126;2023-02-01T04:55:21;101312.72;;;5.37;94.08
9141;BME280;46330;50.822;7.126;2023-02-01T04:57:49;101311.03;;;5.41;93.13
9141;BME280;46330;50.822;7.126;2023-02-01T05:00:19;101299.75;;;5.39;92.49
9141;BME280;46330;50.822;7.126;2023-02-01T05:02:47;101298.88;;;5.37;93.21
9141;BME280;46330;50.822;7.126;2023-02-01T05:05:15;101269.38;;;5.29;93.11
9141;BME280;46330;50.822;7.126;2023-02-01T05:07:43;101282.19;;;5.18;92.93
9141;BME280;46330;50.822;7.126;2023-02-01T05:10:13;101274.41;;;5.17;93.08
9141;BME280;46330;50.822;7.126;2023-02-01T05:12:42;101273.44;;;5.09;93.68
9141;BME280;46330;50.822;7.126;2023-02-01T05:15:29;101276.81;;;5.03;93.96
9141;BME280;46330;50.822;7.126;2023-02-01T05:17:57;101277.56;;;4.96;94.29
9141;BME280;46330;50.822;7.126;2023-02-01T05:20:25;101275.81;;;4.94;93.65
9141;BME280;46330;50.822;7.126;2023-02-01T05:22:53;101280.09;;;4.88;94.65
9141;BME280;46330;50.822;7.126;2023-02-01T05:25:21;101289.53;;;4.85;94.54
9141;BME280;46330;50.822;7.126;2023-02-01T05:27:49;101291.25;;;4.84;94.07
9141;BME280;46330;50.822;7.126;2023-02-01T05:30:17;101300.69;;;4.81;94.56
9141;BME280;46330;50.822;7.126;2023-02-01T05:32:49;101310.13;;;4.76;94.23
9141;BME280;46330;50.822;7.126;2023-02-01T05:35:17;101317.91;;;4.77;94.36
9141;BME280;46330;50.822;7.126;2023-02-01T05:37:45;101304.91;;;4.73;94.36
9141;BME280;46330;50.822;7.126;2023-02-01T05:40:13;101295.47;;;4.78;94.39
9141;BME280;46330;50.822;7.126;2023-02-01T05:42:41;101299.72;;;4.74;94.58
9141;BME280;46330;50.822;7.126;2023-02-01T05:45:09;101301.44;;;4.74;94.53
9141;BME280;46330;50.822;7.126;2023-02-01T05:47:37;101306.63;;;4.72;93.70
9141;BME280;46330;50.822;7.126;2023-02-01T05:50:07;101313.50;;;4.72;93.80
9141;BME280;46330;50.822;7.126;2023-02-01T05:52:35;101306.56;;;4.71;93.62
9141;BME280;46330;50.822;7.126;2023-02-01T05:55:04;101300.47;;;4.66;93.25
9141;BME280;46330;50.822;7.126;2023-02-01T05:57:32;101300.44;;;4.64;93.60
9141;BME280;46330;50.822;7.126;2023-02-01T06:00:00;101301.22;;;4.59;93.34
9141;BME280;46330;50.822;7.126;2023-02-01T06:02:38;101302.94;;;4.58;93.22
9141;BME280;46330;50.822;7.126;2023-02-01T06:05:09;101307.28;;;4.61;93.22
9141;BME280;46330;50.822;7.126;2023-02-01T06:07:36;101299.50;;;4.61;92.78
9141;BME280;46330;50.822;7.126;2023-02-01T06:10:05;101309.03;;;4.60;92.44
9141;BME280;46330;50.822;7.126;2023-02-01T06:12:33;101301.31;;;4.63;92.36
9141;BME280;46330;50.822;7.126;2023-02-01T06:15:01;101310.00;;;4.68;91.88
9141;BME280;46330;50.822;7.126;2023-02-01T06:17:28;101299.63;;;4.68;91.87
9141;BME280;46330;50.822;7.126;2023-02-01T06:19:56;101302.22;;;4.67;91.63
9141;BME280;46330;50.822;7.126;2023-02-01T06:22:26;101297.94;;;4.70;91.37
9141;BME280;46330;50.822;7.126;2023-02-01T06:24:53;101291.91;;;4.70;92.09
9141;BME280;46330;50.822;7.126;2023-02-01T06:27:21;101287.47;;;4.63;92.32
9141;BME280;46330;50.822;7.126;2023-02-01T06:29:49;101288.31;;;4.62;91.60
9141;BME280;46330;50.822;7.126;2023-02-01T06:32:19;101302.09;;;4.59;91.96
9141;BME280;46330;50.822;7.126;2023-02-01T06:34:47;101299.63;;;4.67;91.72
9141;BME280;46330;50.822;7.126;2023-02-01T06:37:15;101299.50;;;4.61;92.25
9141;BME280;46330;50.822;7.126;2023-02-01T06:39:44;101302.94;;;4.58;92.74
9141;BME280;46330;50.822;7.126;2023-02-01T06:42:13;101302.09;;;4.59;92.02
9141;BME280;46330;50.822;7.126;2023-02-01T06:44:41;101296.00;;;4.56;92.55
9141;BME280;46330;50.822;7.126;2023-02-01T06:47:09;101301.16;;;4.56;93.00
9141;BME280;46330;50.822;7.126;2023-02-01T06:49:36;101312.34;;;4.53;93.13
9141;BME280;46330;50.822;7.126;2023-02-01T06:52:04;101326.19;;;4.54;93.13
9141;BME280;46330;50.822;7.126;2023-02-01T06:54:33;101320.19;;;4.58;93.32
9141;BME280;46330;50.822;7.126;2023-02-01T06:57:05;101319.28;;;4.56;93.98
9141;BME280;46330;50.822;7.126;2023-02-01T06:59:33;101331.38;;;4.55;93.61
9141;BME280;46330;50.822;7.126;2023-02-01T07:02:00;101332.28;;;4.57;94.20
9141;BME280;46330;50.822;7.126;2023-02-01T07:04:28;101334.16;;;4.66;94.03
9141;BME280;46330;50.822;7.126;2023-02-01T07:06:56;101329.78;;;4.63;93.81
9141;BME280;46330;50.822;7.126;2023-02-01T07:09:24;101318.59;;;4.67;93.53
9141;BME280;46330;50.822;7.126;2023-02-01T07:11:52;101317.72;;;4.65;93.45
9141;BME280;46330;50.822;7.126;2023-02-01T07:14:21;101319.41;;;4.62;94.05
9141;BME280;46330;50.822;7.126;2023-02-01T07:16:49;101324.66;;;4.66;93.75
9141;BME280;46330;50.822;7.126;2023-02-01T07:19:17;101321.25;;;4.69;93.73
9141;BME280;46330;50.822;7.126;2023-02-01T07:21:45;101327.31;;;4.71;93.44
9141;BME280;46330;50.822;7.126;2023-02-01T07:24:13;101323.09;;;4.76;92.46
9141;BME280;46330;50.822;7.126;2023-02-01T07:26:42;101339.53;;;4.79;93.04
9141;BME280;46330;50.822;7.126;2023-02-01T07:29:09;101344.69;;;4.78;93.18
9141;BME280;46330;50.822;7.126;2023-02-01T07:31:39;101342.06;;;4.76;92.75
9141;BME280;46330;50.822;7.126;2023-02-01T07:34:07;101358.53;;;4.80;93.25
9141;BME280;46330;50.822;7.126;2023-02-01T07:36:35;101359.41;;;4.79;92.63
9141;BME280;46330;50.822;7.126;2023-02-01T07:39:03;101362.03;;;4.82;92.94
9141;BME280;46330;50.822;7.126;2023-02-01T07:41:31;101366.41;;;4.86;92.41
9141;BME280;46330;50.822;7.126;2023-02-01T07:43:59;101358.63;;;4.86;92.71
9141;BME280;46330;50.822;7.126;2023-02-01T07:46:27;101363.06;;;4.92;92.62
9141;BME280;46330;50.822;7.126;2023-02-01T07:48:56;101355.28;;;4.93;92.50
9141;BME280;46330;50.822;7.126;2023-02-01T07:51:24;101362.28;;;4.97;91.68
9141;BME280;46330;50.822;7.126;2023-02-01T07:53:52;101358.00;;;5.01;91.93
9141;BME280;46330;50.822;7.126;2023-02-01T07:56:22;101360.63;;;5.02;91.92
9141;BME280;46330;50.822;7.126;2023-02-01T07:58:51;101363.25;;;5.04;91.74
9141;BME280;46330;50.822;7.126;2023-02-01T08:01:21;101358.03;;;5.02;91.45
9141;BME280;46330;50.822;7.126;2023-02-01T08:03:51;101371.06;;;5.07;91.34
9141;BME280;46330;50.822;7.126;2023-02-01T08:06:21;101374.50;;;5.04;91.67
9141;BME280;46330;50.822;7.126;2023-02-01T08:08:49;101368.47;;;5.08;91.10
9141;BME280;46330;50.822;7.126;2023-02-01T08:11:18;101371.97;;;5.10;90.69
9141;BME280;46330;50.822;7.126;2023-02-01T08:13:47;101382.41;;;5.13;90.92
9141;BME280;46330;50.822;7.126;2023-02-01T08:16:16;101377.25;;;5.18;90.65
9141;BME280;46330;50.822;7.126;2023-02-01T08:18:45;101376.47;;;5.22;90.92
9141;BME280;46330;50.822;7.126;2023-02-01T08:21:19;101373.84;;;5.19;90.87
9141;BME280;46330;50.822;7.126;2023-02-01T08:23:50;101370.34;;;5.18;89.99
9141;BME280;46330;50.822;7.126;2023-02-01T08:26:19;101381.66;;;5.22;90.28
9141;BME280;46330;50.822;7.126;2023-02-01T08:28:50;101380.78;;;5.21;90.88
9141;BME280;46330;50.822;7.126;2023-02-01T08:31:20;101374.72;;;5.19;89.50
9141;BME280;46330;50.822;7.126;2023-02-01T08:33:51;101382.56;;;5.25;90.04
9141;BME280;46330;50.822;7.126;2023-02-01T08:36:20;101388.75;;;5.35;90.42
9141;BME280;46330;50.822;7.126;2023-02-01T08:38:49;101383.53;;;5.33;89.61
9141;BME280;46330;50.822;7.126;2023-02-01T08:41:19;101394.78;;;5.34;90.08
9141;BME280;46330;50.822;7.126;2023-02-01T08:43:47;101389.56;;;5.32;90.06
9141;BME280;46330;50.822;7.126;2023-02-01T08:46:16;101390.50;;;5.36;89.46
9141;BME280;46330;50.822;7.126;2023-02-01T08:48:45;101392.19;;;5.34;90.03
9141;BME280;46330;50.822;7.126;2023-02-01T08:51:16;101396.59;;;5.38;90.01
9141;BME280;46330;50.822;7.126;2023-02-01T08:53:44;101401.81;;;5.42;88.82
9141;BME280;46330;50.822;7.126;2023-02-01T08:56:15;101409.66;;;5.46;89.07
9141;BME280;46330;50.822;7.126;2023-02-01T08:58:44;101409.69;;;5.49;89.79
9141;BME280;46330;50.822;7.126;2023-02-01T09:01:14;101410.53;;;5.46;89.32
9141;BME280;46330;50.822;7.126;2023-02-01T09:03:43;101417.53;;;5.53;89.04
9141;BME280;46330;50.822;7.126;2023-02-01T09:06:13;101421.94;;;5.57;88.52
9141;BME280;46330;50.822;7.126;2023-02-01T09:08:42;101415.91;;;5.61;88.23
9141;BME280;46330;50.822;7.126;2023-02-01T09:11:12;101415.22;;;5.74;88.23
9141;BME280;46330;50.822;7.126;2023-02-01T09:13:42;101419.56;;;5.77;88.16
9141;BME280;46330;50.822;7.126;2023-02-01T09:16:11;101413.63;;;5.84;88.00
9141;BME280;46330;50.822;7.126;2023-02-01T09:18:39;101408.41;;;5.82;86.99
9141;BME280;46330;50.822;7.126;2023-02-01T09:21:22;101398.25;;;5.98;87.11
9141;BME280;46330;50.822;7.126;2023-02-01T09:23:50;101402.59;;;6.02;86.63
9141;BME280;46330;50.822;7.126;2023-02-01T09:26:18;101396.59;;;6.06;86.38
9141;BME280;46330;50.822;7.126;2023-02-01T09:28:58;101407.09;;;6.15;85.67
9141;BME280;46330;50.822;7.126;2023-02-01T09:31:26;101408.00;;;6.20;85.85
9141;BME280;46330;50.822;7.126;2023-02-01T09:33:54;101414.00;;;6.14;85.86
9141;BME280;46330;50.822;7.126;2023-02-01T09:36:22;101398.25;;;5.98;85.74
9141;BME280;46330;50.822;7.126;2023-02-01T09:38:51;101401.63;;;5.90;85.80
9141;BME280;46330;50.822;7.126;2023-02-01T09:41:29;101405.13;;;5.94;86.09
9141;BME280;46330;50.822;7.126;2023-02-01T09:44:08;101406.88;;;5.97;86.71
9141;BME280;46330;50.822;7.126;2023-02-01T09:46:40;101406.91;;;6.01;86.09
9141;BME280;46330;50.822;7.126;2023-02-01T09:49:12;101407.84;;;6.03;86.45
9141;BME280;46330;50.822;7.126;2023-02-01T09:51:45;101430.50;;;6.18;85.52
9141;BME280;46330;50.822;7.126;2023-02-01T09:54:16;101407.91;;;6.09;84.34
9141;BME280;46330;50.822;7.126;2023-02-01T09:56:47;101409.81;;;6.25;84.17
9141;BME280;46330;50.822;7.126;2023-02-01T09:59:28;101406.34;;;6.26;85.57
9141;BME280;46330;50.822;7.126;2023-02-01T10:01:58;101399.50;;;6.36;85.52
9141;BME280;46330;50.822;7.126;2023-02-01T10:04:27;101403.72;;;6.22;85.09
9141;BME280;46330;50.822;7.126;2023-02-01T10:07:06;101409.81;;;6.27;85.12
9141;BME280;46330;50.822;7.126;2023-02-01T10:09:47;101402.78;;;6.17;84.29
9141;BME280;46330;50.822;7.126;2023-02-01T10:12:36;101413.22;;;6.23;85.07
9141;BME280;46330;50.822;7.126;2023-02-01T10:15:24;101398.41;;;6.14;83.94
9141;BME280;46330;50.822;7.126;2023-02-01T10:18:04;101401.09;;;6.20;85.80
9141;BME280;46330;50.822;7.126;2023-02-01T10:20:44;101395.13;;;6.29;85.47
9141;BME280;46330;50.822;7.126;2023-02-01T10:23:28;101389.94;;;6.30;84.49
9141;BME280;46330;50.822;7.126;2023-02-01T10:26:05;101389.97;;;6.32;84.64
9141;BME280;46330;50.822;7.126;2023-02-01T10:28:41;101390.84;;;6.35;84.76
9141;BME280;46330;50.822;7.126;2023-02-01T10:31:12;101394.44;;;6.48;84.12
9141;BME280;46330;50.822;7.126;2023-02-01T10:33:44;101390.19;;;6.56;83.01
9141;BME280;46330;50.822;7.126;2023-02-01T10:36:16;101387.69;;;6.65;82.83
9141;BME280;46330;50.822;7.126;2023-02-01T10:38:47;101390.31;;;6.71;82.65
9141;BME280;46330;50.822;7.126;2023-02-01T10:41:19;101389.50;;;6.77;81.53
9141;BME280;46330;50.822;7.126;2023-02-01T10:43:50;101387.38;;;7.45;79.94
9141;BME280;46330;50.822;7.126;2023-02-01T10:46:22;101386.69;;;7.91;76.67
9141;BME280;46330;50.822;7.126;2023-02-01T10:48:53;101387.59;;;8.01;76.24
9141;BME280;46330;50.822;7.126;2023-02-01T10:51:26;101374.59;;;8.13;75.65
9141;BME280;46330;50.822;7.126;2023-02-01T10:53:57;101378.88;;;7.91;76.10
9141;BME280;46330;50.822;7.126;2023-02-01T10:56:28;101370.31;;;8.21;74.73
9141;BME280;46330;50.822;7.126;2023-02-01T10:59:01;101368.63;;;8.43;73.11
9141;BME280;46330;50.822;7.126;2023-02-01T11:01:36;101358.19;;;9.05;71.81
9141;BME280;46330;50.822;7.126;2023-02-01T11:04:06;101360.81;;;8.78;72.04
9141;BME280;46330;50.822;7.126;2023-02-01T11:06:38;101362.53;;;8.33;73.31
9141;BME280;46330;50.822;7.126;2023-02-01T11:09:15;101358.19;;;8.41;73.28
9141;BME280;46330;50.822;7.126;2023-02-01T11:11:57;101350.38;;;8.58;73.13
9141;BME280;46330;50.822;7.126;2023-02-01T11:14:32;101353.88;;;8.87;71.76
9141;BME280;46330;50.822;7.126;2023-02-01T11:17:17;101353.84;;;8.75;72.01
9141;BME280;46330;50.822;7.126;2023-02-01T11:19:57;101363.41;;;8.31;72.50
9141;BME280;46330;50.822;7.126;2023-02-01T11:22:26;101366.00;;;8.29;73.17
9141;BME280;46330;50.822;7.126;2023-02-01T11:24:56;101368.50;;;8.06;73.56
9141;BME280;46330;50.822;7.126;2023-02-01T11:27:28;101368.44;;;7.85;74.57
9141;BME280;46330;50.822;7.126;2023-02-01T11:30:00;101374.41;;;7.52;75.31
9141;BME280;46330;50.822;7.126;2023-02-01T11:32:31;101371.81;;;7.60;76.02
9141;BME280;46330;50.822;7.126;2023-02-01T11:35:02;101368.31;;;7.53;75.56
9141;BME280;46330;50.822;7.126;2023-02-01T11:37:35;101353.59;;;7.55;75.96
9141;BME280;46330;50.822;7.126;2023-02-01T11:40:23;101346.59;;;7.45;74.88
9141;BME280;46330;50.822;7.126;2023-02-01T11:42:54;101345.81;;;7.68;75.10
9141;BME280;46330;50.822;7.126;2023-02-01T11:45:26;101343.25;;;7.75;74.94
9141;BME280;46330;50.822;7.126;2023-02-01T11:47:56;101343.25;;;7.77;74.86
9141;BME280;46330;50.822;7.126;2023-02-01T11:50:30;101338.88;;;7.70;74.89
9141;BME280;46330;50.822;7.126;2023-02-01T11:53:18;101340.56;;;7.55;74.72
9141;BME280;46330;50.822;7.126;2023-02-01T11:55:55;101345.72;;;7.45;74.73
9141;BME280;46330;50.822;7.126;2023-02-01T11:58:36;101338.81;;;7.50;75.44
9141;BME280;46330;50.822;7.126;2023-02-01T12:01:28;101348.28;;;7.34;75.79
9141;BME280;46330;50.822;7.126;2023-02-01T12:04:13;101335.31;;;7.40;75.88
9141;BME280;46330;50.822;7.126;2023-02-01T12:06:48;101323.94;;;7.26;75.17
9141;BME280;46330;50.822;7.126;2023-02-01T12:09:29;101321.31;;;7.23;76.80
9141;BME280;46330;50.822;7.126;2023-02-01T12:12:07;101316.16;;;7.31;76.07
9141;BME280;46330;50.822;7.126;2023-02-01T12:14:46;101314.34;;;7.16;77.13
9141;BME280;46330;50.822;7.126;2023-02-01T12:17:51;101309.09;;;7.07;77.24
9141;BME280;46330;50.822;7.126;2023-02-01T12:20:32;101308.25;;;7.11;76.04
9141;BME280;46330;50.822;7.126;2023-02-01T12:23:14;101311.69;;;7.07;76.21
9141;BME280;46330;50.822;7.126;2023-02-01T12:26:00;101307.38;;;7.11;76.17
9141;BME280;46330;50.822;7.126;2023-02-01T12:28:52;101308.31;;;7.23;76.74
9141;BME280;46330;50.822;7.126;2023-02-01T12:31:38;101302.25;;;7.23;75.35
9141;BME280;46330;50.822;7.126;2023-02-01T12:34:29;101305.75;;;7.32;75.60
9141;BME280;46330;50.822;7.126;2023-02-01T12:37:13;101297.09;;;7.30;74.50
9141;BME280;46330;50.822;7.126;2023-02-01T12:39:49;101299.69;;;7.35;74.72
9141;BME280;46330;50.822;7.126;2023-02-01T12:42:22;101290.25;;;7.55;75.26
9141;BME280;46330;50.822;7.126;2023-02-01T12:44:56;101291.94;;;7.45;75.56
9141;BME280;46330;50.822;7.126;2023-02-01T12:47:29;101284.97;;;7.37;74.43
9141;BME280;46330;50.822;7.126;2023-02-01T12:50:02;101297.09;;;7.38;74.39
9141;BME280;46330;50.822;7.126;2023-02-01T12:52:36;101296.25;;;7.34;74.23
9141;BME280;46330;50.822;7.126;2023-02-01T12:55:17;101291.91;;;7.36;75.38
9141;BME280;46330;50.822;7.126;2023-02-01T12:57:52;101287.59;;;7.50;75.23
9141;BME280;46330;50.822;7.126;2023-02-01T13:00:27;101275.56;;;7.75;74.78
9141;BME280;46330;50.822;7.126;2023-02-01T13:03:03;101267.72;;;7.72;74.78
9141;BME280;46330;50.822;7.126;2023-02-01T13:05:44;101273.75;;;7.57;74.20
9141;BME280;46330;50.822;7.126;2023-02-01T13:08:21;101265.94;;;7.51;73.61
9141;BME280;46330;50.822;7.126;2023-02-01T13:10:56;101260.69;;;7.42;74.57
9141;BME280;46330;50.822;7.126;2023-02-01T13:13:29;101251.13;;;7.38;74.63
9141;BME280;46330;50.822;7.126;2023-02-01T13:16:06;101247.66;;;7.33;75.40
9141;BME280;46330;50.822;7.126;2023-02-01T13:18:41;101255.44;;;7.30;75.60
9141;BME280;46330;50.822;7.126;2023-02-01T13:21:14;101244.16;;;7.27;75.43
9141;BME280;46330;50.822;7.126;2023-02-01T13:23:46;101245.91;;;7.25;75.36
9141;BME280;46330;50.822;7.126;2023-02-01T13:26:16;101242.41;;;7.24;74.76
9141;BME280;46330;50.822;7.126;2023-02-01T13:28:45;101219.88;;;7.22;75.80
9141;BME280;46330;50.822;7.126;2023-02-01T13:31:49;101240.72;;;7.28;75.31
9141;BME280;46330;50.822;7.126;2023-02-01T13:35:00;101234.59;;;7.21;76.11
9141;BME280;46330;50.822;7.126;2023-02-01T13:37:43;101219.84;;;7.20;77.27
9141;BME280;46330;50.822;7.126;2023-02-01T13:40:31;101231.06;;;7.10;78.52
9141;BME280;46330;50.822;7.126;2023-02-01T13:43:06;101222.41;;;7.08;79.25
9141;BME280;46330;50.822;7.126;2023-02-01T13:45:37;101228.44;;;7.04;79.89
9141;BME280;46330;50.822;7.126;2023-02-01T13:48:19;101232.81;;;7.07;81.01
9141;BME280;46330;50.822;7.126;2023-02-01T13:50:52;101224.94;;;6.97;81.67